createdAt,value
2023-02-15T00:01:51.637Z,17.21
2023-02-15T00:04:20.940Z,17.21
2023-02-15T00:06:47.928Z,17.20
2023-02-15T00:09:14.627Z,17.20
2023-02-15T00:11:41.987Z,17.18
2023-02-15T00:14:12.369Z,17.18
2023-02-15T00:16:40.782Z,17.16
2023-02-15T00:19:07.812Z,17.15
2023-02-15T00:21:35.297Z,17.14
2023-02-15T00:24:04.103Z,17.15
2023-02-15T00:26:31.251Z,17.14
2023-02-15T00:29:01.780Z,17.12
2023-02-15T00:31:31.720Z,17.12
2023-02-15T00:34:23.693Z,17.10
2023-02-15T00:36:51.074Z,17.10
2023-02-15T00:39:18.460Z,17.08
2023-02-15T00:41:45.902Z,17.07
2023-02-15T00:44:12.847Z,17.07
2023-02-15T00:46:39.525Z,17.06
2023-02-15T00:49:06.541Z,17.05
2023-02-15T00:51:33.611Z,17.03
2023-02-15T00:54:00.430Z,17.02
2023-02-15T00:56:29.353Z,17.01
2023-02-15T00:58:56.095Z,17.00
2023-02-15T01:01:22.751Z,16.98
2023-02-15T01:03:49.307Z,16.98
2023-02-15T01:06:16.973Z,16.98
2023-02-15T01:08:44.446Z,16.97
2023-02-15T01:11:13.827Z,16.95
2023-02-15T01:13:41.053Z,16.95
2023-02-15T01:16:08.595Z,16.94
2023-02-15T01:18:35.853Z,16.93
2023-02-15T01:21:14.709Z,16.91
2023-02-15T01:23:43.028Z,16.91
2023-02-15T01:26:10.722Z,16.91
2023-02-15T01:28:39.393Z,16.89
2023-02-15T01:31:07.727Z,16.88
2023-02-15T01:33:34.554Z,16.88
2023-02-15T01:36:01.401Z,16.86
2023-02-15T01:38:28.054Z,16.86
2023-02-15T01:41:15.232Z,16.84
2023-02-15T01:43:43.635Z,16.85
2023-02-15T01:46:12.922Z,16.84
2023-02-15T01:48:47.865Z,16.81
2023-02-15T01:51:18.012Z,16.81
2023-02-15T01:54:03.875Z,16.77
2023-02-15T01:56:34.073Z,16.78
2023-02-15T01:59:06.873Z,16.77
2023-02-15T02:01:33.470Z,16.76
2023-02-15T02:04:09.537Z,16.75
2023-02-15T02:06:38.997Z,16.76
2023-02-15T02:09:05.535Z,16.75
2023-02-15T02:11:33.344Z,16.74
2023-02-15T02:14:00.003Z,16.74
2023-02-15T02:16:35.626Z,16.72
2023-02-15T02:19:32.952Z,16.69
2023-02-15T02:22:36.530Z,16.69
2023-02-15T02:25:02.989Z,16.68
2023-02-15T02:27:41.009Z,16.67
2023-02-15T02:30:20.366Z,16.67
2023-02-15T02:33:08.439Z,16.66
2023-02-15T02:35:45.619Z,16.65
2023-02-15T02:38:29.798Z,16.64
2023-02-15T02:41:17.297Z,16.65
2023-02-15T02:44:00.021Z,16.63
2023-02-15T02:46:35.583Z,16.61
2023-02-15T02:49:02.453Z,16.62
2023-02-15T02:51:29.147Z,16.61
2023-02-15T02:54:00.403Z,16.60
2023-02-15T02:56:31.269Z,16.60
2023-02-15T02:59:11.851Z,16.57
2023-02-15T03:01:47.278Z,16.58
2023-02-15T03:04:20.870Z,16.57
2023-02-15T03:06:56.285Z,16.56
2023-02-15T03:09:42.751Z,16.56
2023-02-15T03:12:16.131Z,16.55
2023-02-15T03:14:46.451Z,16.53
2023-02-15T03:17:15.054Z,16.53
2023-02-15T03:19:45.249Z,16.53
2023-02-15T03:22:20.378Z,16.52
2023-02-15T03:24:59.733Z,16.51
2023-02-15T03:27:32.651Z,16.51
2023-02-15T03:30:00.975Z,16.51
2023-02-15T03:32:30.339Z,16.50
2023-02-15T03:34:56.970Z,16.49
2023-02-15T03:37:23.406Z,16.50
2023-02-15T03:40:20.221Z,16.48
2023-02-15T03:42:54.248Z,16.48
2023-02-15T03:45:27.950Z,16.49
2023-02-15T03:47:56.905Z,16.48
2023-02-15T03:50:47.412Z,16.52
2023-02-15T03:53:17.653Z,16.52
2023-02-15T03:55:48.365Z,16.51
2023-02-15T03:58:33.591Z,16.53
2023-02-15T04:01:39.728Z,16.53
2023-02-15T04:04:19.013Z,16.53
2023-02-15T04:06:45.599Z,16.54
2023-02-15T04:09:31.780Z,16.54
2023-02-15T04:11:58.294Z,16.54
2023-02-15T04:14:43.278Z,16.53
2023-02-15T04:17:10.132Z,16.54
2023-02-15T04:19:55.489Z,16.53
2023-02-15T04:22:40.915Z,16.53
2023-02-15T04:25:16.255Z,16.52
2023-02-15T04:27:51.184Z,16.50
2023-02-15T04:30:20.387Z,16.51
2023-02-15T04:32:47.324Z,16.49
2023-02-15T04:35:14.353Z,16.47
2023-02-15T04:37:41.982Z,16.46
2023-02-15T04:40:12.626Z,16.44
2023-02-15T04:42:39.139Z,16.43
2023-02-15T04:45:06.386Z,16.42
2023-02-15T04:47:33.173Z,16.41
2023-02-15T04:49:59.718Z,16.40
2023-02-15T04:52:26.285Z,16.42
2023-02-15T04:54:52.780Z,16.40
2023-02-15T04:57:19.246Z,16.40
2023-02-15T04:59:45.789Z,16.42
2023-02-15T05:02:12.352Z,16.41
2023-02-15T05:04:38.859Z,16.41
2023-02-15T05:07:05.417Z,16.42
2023-02-15T05:09:31.992Z,16.42
2023-02-15T05:11:58.503Z,16.41
2023-02-15T05:14:25.123Z,16.41
2023-02-15T05:16:51.713Z,16.42
2023-02-15T05:19:18.272Z,16.41
2023-02-15T05:21:44.779Z,16.41
2023-02-15T05:24:37.400Z,16.42
2023-02-15T05:27:22.572Z,16.40
2023-02-15T05:29:49.232Z,16.40
2023-02-15T05:32:16.207Z,16.39
2023-02-15T05:34:43.235Z,16.37
2023-02-15T05:37:09.807Z,16.37
2023-02-15T05:39:36.359Z,16.36
2023-02-15T05:42:02.971Z,16.36
2023-02-15T05:44:29.535Z,16.35
2023-02-15T05:46:56.024Z,16.34
2023-02-15T05:49:22.616Z,16.33
2023-02-15T05:51:49.753Z,16.32
2023-02-15T05:54:16.266Z,16.31
2023-02-15T05:56:42.828Z,16.29
2023-02-15T05:59:09.491Z,16.29
2023-02-15T06:01:36.522Z,16.27
2023-02-15T06:04:03.081Z,16.27
2023-02-15T06:06:29.649Z,16.25
2023-02-15T06:08:56.156Z,16.26
2023-02-15T06:11:22.682Z,16.25
2023-02-15T06:13:49.186Z,16.23
2023-02-15T06:16:16.908Z,16.23
2023-02-15T06:18:43.951Z,16.22
2023-02-15T06:21:10.499Z,16.22
2023-02-15T06:23:37.068Z,16.21
2023-02-15T06:26:03.801Z,16.18
2023-02-15T06:28:30.698Z,16.20
2023-02-15T06:30:57.334Z,16.19
2023-02-15T06:33:24.325Z,16.18
2023-02-15T06:35:50.875Z,16.16
2023-02-15T06:38:18.638Z,16.16
2023-02-15T06:40:45.109Z,16.16
2023-02-15T06:43:11.596Z,16.15
2023-02-15T06:45:38.280Z,16.15
2023-02-15T06:48:07.837Z,16.14
2023-02-15T06:50:34.716Z,16.13
2023-02-15T06:53:01.270Z,16.13
2023-02-15T06:55:27.778Z,16.13
2023-02-15T06:57:54.298Z,16.13
2023-02-15T07:00:23.367Z,16.11
2023-02-15T07:02:56.921Z,16.11
2023-02-15T07:05:23.725Z,16.11
2023-02-15T07:07:50.320Z,16.10
2023-02-15T07:10:16.951Z,16.09
2023-02-15T07:12:43.627Z,16.09
2023-02-15T07:15:18.144Z,16.09
2023-02-15T07:17:45.212Z,16.09
2023-02-15T07:20:17.478Z,16.08
2023-02-15T07:22:44.074Z,16.08
2023-02-15T07:25:11.811Z,16.09
2023-02-15T07:27:39.046Z,16.08
2023-02-15T07:30:07.701Z,16.08
2023-02-15T07:32:34.582Z,16.09
2023-02-15T07:35:01.194Z,16.07
2023-02-15T07:37:28.622Z,16.08
2023-02-15T07:39:55.174Z,16.09
2023-02-15T07:42:22.948Z,16.08
2023-02-15T07:44:49.729Z,16.08
2023-02-15T07:47:16.419Z,16.09
2023-02-15T07:49:43.079Z,16.09
2023-02-15T07:52:09.746Z,16.09
2023-02-15T07:54:36.229Z,16.09
2023-02-15T07:57:02.959Z,16.10
2023-02-15T07:59:29.534Z,16.09
2023-02-15T08:01:57.438Z,16.09
2023-02-15T08:04:24.888Z,16.11
2023-02-15T08:06:54.117Z,16.11
2023-02-15T08:09:21.395Z,16.12
2023-02-15T08:11:48.202Z,16.12
2023-02-15T08:14:20.077Z,16.14
2023-02-15T08:16:54.006Z,16.15
2023-02-15T08:19:21.932Z,16.17
2023-02-15T08:21:54.481Z,16.18
2023-02-15T08:24:23.505Z,16.19
2023-02-15T08:26:51.157Z,16.21
2023-02-15T08:29:20.242Z,16.22
2023-02-15T08:31:47.606Z,16.23
2023-02-15T08:34:19.223Z,16.24
2023-02-15T08:36:46.384Z,16.27
2023-02-15T08:39:14.285Z,16.27
2023-02-15T08:41:43.256Z,16.30
2023-02-15T08:44:11.599Z,16.32
2023-02-15T08:46:40.717Z,16.33
2023-02-15T08:49:07.487Z,16.35
2023-02-15T08:51:36.204Z,16.38
2023-02-15T08:54:06.467Z,16.41
2023-02-15T08:56:36.381Z,16.44
2023-02-15T08:59:04.268Z,16.45
2023-02-15T09:01:32.647Z,16.47
2023-02-15T09:04:02.557Z,16.50
2023-02-15T09:06:29.945Z,16.52
2023-02-15T09:08:57.196Z,16.57
2023-02-15T09:11:29.455Z,16.58
2023-02-15T09:14:01.069Z,16.60
2023-02-15T09:16:30.827Z,16.62
2023-02-15T09:19:02.356Z,16.63
2023-02-15T09:21:30.006Z,16.67
2023-02-15T09:24:00.545Z,16.70
2023-02-15T09:26:29.229Z,16.74
2023-02-15T09:28:58.194Z,16.77
2023-02-15T09:31:27.828Z,16.81
2023-02-15T09:33:55.340Z,16.85
2023-02-15T09:36:26.272Z,16.89
2023-02-15T09:39:05.017Z,16.93
2023-02-15T09:41:52.824Z,16.98
2023-02-15T09:44:28.241Z,17.03
2023-02-15T09:47:10.562Z,17.08
2023-02-15T09:50:01.023Z,17.13
2023-02-15T09:53:15.578Z,17.19
2023-02-15T09:55:47.860Z,17.28
2023-02-15T09:58:58.575Z,17.33
2023-02-15T10:01:52.747Z,17.39
2023-02-15T10:04:26.610Z,17.45
2023-02-15T10:07:02.635Z,17.49
2023-02-15T10:09:50.675Z,17.55
2023-02-15T10:12:29.207Z,17.59
2023-02-15T10:15:17.336Z,17.64
2023-02-15T10:18:19.362Z,17.69
2023-02-15T10:21:11.089Z,17.75
2023-02-15T10:24:03.321Z,17.80
2023-02-15T10:26:35.096Z,17.84
2023-02-15T10:29:18.278Z,17.88
2023-02-15T10:31:55.367Z,17.93
2023-02-15T10:34:51.502Z,17.96
2023-02-15T10:37:47.812Z,18.01
2023-02-15T10:40:23.059Z,18.05
2023-02-15T10:43:19.373Z,18.06
2023-02-15T10:46:02.032Z,18.11
2023-02-15T10:48:57.978Z,18.13
2023-02-15T10:51:45.218Z,18.16
2023-02-15T10:54:19.292Z,18.18
2023-02-15T10:56:51.748Z,18.19
2023-02-15T10:59:27.103Z,18.21
2023-02-15T11:02:23.836Z,18.22
2023-02-15T11:05:12.029Z,18.23
2023-02-15T11:07:42.564Z,18.25
2023-02-15T11:10:21.624Z,18.25
2023-02-15T11:12:49.928Z,18.29
2023-02-15T11:15:40.385Z,18.29
2023-02-15T11:18:18.528Z,18.31
2023-02-15T11:21:25.428Z,18.31
2023-02-15T11:23:53.014Z,18.34
2023-02-15T11:26:30.816Z,18.36
2023-02-15T11:29:21.469Z,18.37
2023-02-15T11:31:54.089Z,18.38
2023-02-15T11:34:34.948Z,18.39
2023-02-15T11:37:09.559Z,18.41
2023-02-15T11:39:38.298Z,18.43
2023-02-15T11:42:12.268Z,18.44
2023-02-15T11:44:46.916Z,18.45
2023-02-15T11:47:14.808Z,18.46
2023-02-15T11:49:41.438Z,18.47
2023-02-15T11:52:13.559Z,18.48
2023-02-15T11:54:58.198Z,18.49
2023-02-15T11:57:32.855Z,18.52
2023-02-15T12:00:22.555Z,18.53
2023-02-15T12:02:54.385Z,18.55
2023-02-15T12:05:24.592Z,18.55
2023-02-15T12:08:01.786Z,18.56
2023-02-15T12:10:37.252Z,18.57
2023-02-15T12:13:12.947Z,18.57
2023-02-15T12:15:43.428Z,18.59
2023-02-15T12:18:34.066Z,18.59
2023-02-15T12:21:21.785Z,18.62
2023-02-15T12:23:51.817Z,18.64
2023-02-15T12:26:33.822Z,18.63
2023-02-15T12:29:08.169Z,18.65
2023-02-15T12:31:41.739Z,18.68
2023-02-15T12:34:23.587Z,18.70
2023-02-15T12:36:59.006Z,18.73
2023-02-15T12:39:28.569Z,18.76
2023-02-15T12:41:55.112Z,18.77
2023-02-15T12:44:25.174Z,18.77
2023-02-15T12:47:02.539Z,18.81
2023-02-15T12:49:34.182Z,18.82
2023-02-15T12:52:03.559Z,18.83
2023-02-15T12:54:29.997Z,18.84
2023-02-15T12:56:58.509Z,18.87
2023-02-15T12:59:25.266Z,18.87
2023-02-15T13:01:55.166Z,18.87
2023-02-15T13:04:30.155Z,18.88
2023-02-15T13:07:00.625Z,18.89
2023-02-15T13:09:39.036Z,18.89
2023-02-15T13:12:24.560Z,18.89
2023-02-15T13:14:53.183Z,18.89
2023-02-15T13:17:32.578Z,18.89
2023-02-15T13:20:04.652Z,18.89
2023-02-15T13:22:44.447Z,18.90
2023-02-15T13:25:23.091Z,18.90
2023-02-15T13:27:55.168Z,18.90
2023-02-15T13:30:24.540Z,18.91
2023-02-15T13:32:57.219Z,18.92
2023-02-15T13:35:26.189Z,18.91
2023-02-15T13:38:11.376Z,18.92
2023-02-15T13:40:56.299Z,18.92
2023-02-15T13:43:53.332Z,18.92
2023-02-15T13:46:45.299Z,18.91
2023-02-15T13:49:17.847Z,18.93
2023-02-15T13:51:53.351Z,18.90
2023-02-15T13:54:51.841Z,18.90
2023-02-15T13:57:31.474Z,18.88
2023-02-15T14:00:06.043Z,18.88
2023-02-15T14:03:17.007Z,18.88
2023-02-15T14:06:21.194Z,18.87
2023-02-15T14:08:53.248Z,18.87
2023-02-15T14:11:27.911Z,18.86
2023-02-15T14:14:20.931Z,18.85
2023-02-15T14:17:10.733Z,18.85
2023-02-15T14:19:51.662Z,18.84
2023-02-15T14:22:32.948Z,18.84
2023-02-15T14:25:18.381Z,18.84
2023-02-15T14:28:09.852Z,18.83
2023-02-15T14:30:39.836Z,18.85
2023-02-15T14:33:15.482Z,18.83
2023-02-15T14:35:43.881Z,18.84
2023-02-15T14:38:10.534Z,18.84
2023-02-15T14:41:27.691Z,18.81
2023-02-15T14:44:16.843Z,18.82
2023-02-15T14:46:59.304Z,18.83
2023-02-15T14:49:33.463Z,18.83
2023-02-15T14:52:03.970Z,18.82
2023-02-15T14:54:31.347Z,18.82
2023-02-15T14:57:03.720Z,18.82
2023-02-15T14:59:36.265Z,18.80
2023-02-15T15:02:08.775Z,18.79
2023-02-15T15:04:55.850Z,18.78
2023-02-15T15:07:28.919Z,18.78
2023-02-15T15:10:27.589Z,18.77
2023-02-15T15:12:58.612Z,18.76
2023-02-15T15:15:27.878Z,18.75
2023-02-15T15:18:00.354Z,18.73
2023-02-15T15:20:26.818Z,18.72
2023-02-15T15:23:16.025Z,18.69
2023-02-15T15:25:56.171Z,18.66
2023-02-15T15:28:34.834Z,18.68
2023-02-15T15:31:25.786Z,18.66
2023-02-15T15:34:15.332Z,18.65
2023-02-15T15:37:13.232Z,18.62
2023-02-15T15:39:56.258Z,18.63
2023-02-15T15:42:38.207Z,18.62
2023-02-15T15:45:38.786Z,18.62
2023-02-15T15:48:26.862Z,18.60
2023-02-15T15:51:10.941Z,18.59
2023-02-15T15:53:43.188Z,18.57
2023-02-15T15:56:14.944Z,18.59
2023-02-15T15:58:50.278Z,18.57
2023-02-15T16:01:17.278Z,18.56
2023-02-15T16:03:52.039Z,18.54
2023-02-15T16:06:37.894Z,18.51
2023-02-15T16:09:18.509Z,18.50
2023-02-15T16:11:48.386Z,18.49
2023-02-15T16:14:23.156Z,18.46
2023-02-15T16:16:54.766Z,18.46
2023-02-15T16:19:25.457Z,18.44
2023-02-15T16:21:52.426Z,18.44
2023-02-15T16:24:58.343Z,18.42
2023-02-15T16:27:39.472Z,18.41
2023-02-15T16:30:24.653Z,18.40
2023-02-15T16:33:12.533Z,18.38
2023-02-15T16:35:41.922Z,18.39
2023-02-15T16:38:12.346Z,18.38
2023-02-15T16:40:52.156Z,18.37
2023-02-15T16:43:25.719Z,18.34
2023-02-15T16:45:59.931Z,18.33
2023-02-15T16:48:28.615Z,18.33
2023-02-15T16:50:58.271Z,18.31
2023-02-15T16:53:27.820Z,18.31
2023-02-15T16:55:58.138Z,18.29
2023-02-15T16:58:30.133Z,18.29
2023-02-15T17:00:59.850Z,18.29
2023-02-15T17:03:27.659Z,18.28
2023-02-15T17:05:59.585Z,18.28
2023-02-15T17:08:28.066Z,18.25
2023-02-15T17:11:00.807Z,18.23
2023-02-15T17:13:28.471Z,18.22
2023-02-15T17:16:01.329Z,18.19
2023-02-15T17:18:46.011Z,18.18
2023-02-15T17:21:19.936Z,18.15
2023-02-15T17:23:49.020Z,18.13
2023-02-15T17:26:28.191Z,18.12
2023-02-15T17:29:01.728Z,18.11
2023-02-15T17:31:32.903Z,18.09
2023-02-15T17:34:01.712Z,18.12
2023-02-15T17:36:30.746Z,18.09
2023-02-15T17:39:04.930Z,18.08
2023-02-15T17:41:36.088Z,18.06
2023-02-15T17:44:04.131Z,18.05
2023-02-15T17:46:35.675Z,18.03
2023-02-15T17:49:02.962Z,18.02
2023-02-15T17:51:29.808Z,18.00
2023-02-15T17:54:15.099Z,17.99
2023-02-15T17:56:41.701Z,17.98
2023-02-15T17:59:08.277Z,17.97
2023-02-15T18:01:56.114Z,17.96
2023-02-15T18:04:41.963Z,17.97
2023-02-15T18:07:31.981Z,17.93
2023-02-15T18:10:17.373Z,17.92
2023-02-15T18:12:43.919Z,17.91
2023-02-15T18:15:12.998Z,17.89
2023-02-15T18:17:41.994Z,17.90
2023-02-15T18:20:37.170Z,17.86
2023-02-15T18:23:03.754Z,17.88
2023-02-15T18:25:30.450Z,17.86
2023-02-15T18:27:57.045Z,17.85
2023-02-15T18:30:26.683Z,17.85
2023-02-15T18:32:57.041Z,17.85
2023-02-15T18:35:26.567Z,17.85
2023-02-15T18:37:53.983Z,17.86
2023-02-15T18:40:24.765Z,17.85
2023-02-15T18:42:51.522Z,17.85
2023-02-15T18:45:32.710Z,17.85
2023-02-15T18:47:59.304Z,17.85
2023-02-15T18:50:28.861Z,17.85
2023-02-15T18:52:55.610Z,17.84
2023-02-15T18:55:25.060Z,17.83
2023-02-15T18:57:53.279Z,17.82
2023-02-15T19:00:22.960Z,17.83
2023-02-15T19:02:49.505Z,17.81
2023-02-15T19:05:18.173Z,17.80
2023-02-15T19:07:48.341Z,17.79
2023-02-15T19:10:21.567Z,17.76
2023-02-15T19:12:49.325Z,17.74
2023-02-15T19:15:18.206Z,17.73
2023-02-15T19:17:44.936Z,17.74
2023-02-15T19:20:27.197Z,17.71
2023-02-15T19:22:56.547Z,17.71
2023-02-15T19:25:27.077Z,17.69
2023-02-15T19:27:54.878Z,17.68
2023-02-15T19:30:29.894Z,17.68
2023-02-15T19:32:57.592Z,17.65
2023-02-15T19:35:27.682Z,17.64
2023-02-15T19:37:57.950Z,17.63
2023-02-15T19:40:29.962Z,17.63
2023-02-15T19:42:56.910Z,17.62
2023-02-15T19:45:28.639Z,17.59
2023-02-15T19:47:55.570Z,17.59
2023-02-15T19:50:28.706Z,17.58
2023-02-15T19:52:55.544Z,17.56
2023-02-15T19:55:28.104Z,17.55
2023-02-15T19:57:57.204Z,17.55
2023-02-15T20:00:26.294Z,17.55
2023-02-15T20:02:53.583Z,17.53
2023-02-15T20:05:20.389Z,17.52
2023-02-15T20:07:49.234Z,17.51
2023-02-15T20:10:28.873Z,17.48
2023-02-15T20:12:56.028Z,17.48
2023-02-15T20:15:28.302Z,17.46
2023-02-15T20:17:57.104Z,17.46
2023-02-15T20:20:28.961Z,17.45
2023-02-15T20:22:55.679Z,17.44
2023-02-15T20:25:27.058Z,17.44
2023-02-15T20:27:53.903Z,17.42
2023-02-15T20:30:23.220Z,17.42
2023-02-15T20:32:50.312Z,17.42
2023-02-15T20:35:19.358Z,17.40
2023-02-15T20:37:48.609Z,17.40
2023-02-15T20:40:20.821Z,17.38
2023-02-15T20:42:47.941Z,17.37
2023-02-15T20:45:15.708Z,17.35
2023-02-15T20:47:44.393Z,17.35
2023-02-15T20:50:11.061Z,17.32
2023-02-15T20:52:37.553Z,17.32
2023-02-15T20:55:12.873Z,17.31
2023-02-15T20:57:39.460Z,17.29
2023-02-15T21:00:08.742Z,17.28
2023-02-15T21:02:36.312Z,17.27
2023-02-15T21:05:02.858Z,17.27
2023-02-15T21:07:29.359Z,17.26
2023-02-15T21:09:55.855Z,17.26
2023-02-15T21:12:23.556Z,17.25
2023-02-15T21:14:50.126Z,17.24
2023-02-15T21:17:17.299Z,17.23
2023-02-15T21:19:44.214Z,17.21
2023-02-15T21:22:13.628Z,17.21
2023-02-15T21:24:47.762Z,17.20
2023-02-15T21:27:15.112Z,17.20
2023-02-15T21:29:41.659Z,17.20
2023-02-15T21:32:10.020Z,17.19
2023-02-15T21:34:36.953Z,17.17
2023-02-15T21:37:03.677Z,17.18
2023-02-15T21:39:35.621Z,17.15
2023-02-15T21:42:21.003Z,17.15
2023-02-15T21:45:05.967Z,17.14
2023-02-15T21:47:50.752Z,17.13
2023-02-15T21:50:41.986Z,17.13
2023-02-15T21:53:12.475Z,17.11
2023-02-15T21:55:39.244Z,17.10
2023-02-15T21:58:06.313Z,17.09
2023-02-15T22:00:33.841Z,17.08
2023-02-15T22:03:01.816Z,17.08
2023-02-15T22:05:30.975Z,17.08
2023-02-15T22:07:57.527Z,17.07
2023-02-15T22:10:28.418Z,17.05
2023-02-15T22:12:55.383Z,17.06
2023-02-15T22:15:24.505Z,17.04
2023-02-15T22:17:55.292Z,17.05
2023-02-15T22:20:24.493Z,17.03
2023-02-15T22:22:52.006Z,17.02
2023-02-15T22:25:23.165Z,17.02
2023-02-15T22:27:51.672Z,17.01
2023-02-15T22:30:27.503Z,16.98
2023-02-15T22:32:56.185Z,16.99
2023-02-15T22:35:26.584Z,16.99
2023-02-15T22:37:53.193Z,16.98
2023-02-15T22:40:21.584Z,16.97
2023-02-15T22:42:50.816Z,16.98
2023-02-15T22:45:20.004Z,16.95
2023-02-15T22:47:48.547Z,16.95
2023-02-15T22:50:32.683Z,16.91
2023-02-15T22:53:03.336Z,16.90
2023-02-15T22:55:36.266Z,16.93
2023-02-15T22:58:03.938Z,16.92
2023-02-15T23:00:35.469Z,16.91
2023-02-15T23:03:02.053Z,16.89
2023-02-15T23:05:30.942Z,16.88
2023-02-15T23:07:57.997Z,16.89
2023-02-15T23:10:26.762Z,16.87
2023-02-15T23:13:14.671Z,16.87
2023-02-15T23:15:42.783Z,16.85
2023-02-15T23:18:15.026Z,16.85
2023-02-15T23:20:41.522Z,16.85
2023-02-15T23:23:13.371Z,16.82
2023-02-15T23:25:40.674Z,16.83
2023-02-15T23:28:19.770Z,16.80
2023-02-15T23:30:47.321Z,16.82
2023-02-15T23:33:14.271Z,16.80
2023-02-15T23:35:40.825Z,16.80
2023-02-15T23:38:30.570Z,16.76
2023-02-15T23:41:19.716Z,16.77
2023-02-15T23:43:58.314Z,16.76
2023-02-15T23:46:29.406Z,16.77
2023-02-15T23:48:56.441Z,16.77
2023-02-15T23:51:28.253Z,16.76
2023-02-15T23:53:54.739Z,16.75
2023-02-15T23:56:21.233Z,16.74
2023-02-15T23:58:48.289Z,16.74
